createdAt,value
2019-02-27T00:00:49.461Z,54.80
2019-02-27T00:03:23.010Z,54.90
2019-02-27T00:05:56.441Z,55.00
2019-02-27T00:08:29.859Z,54.90
2019-02-27T00:11:03.291Z,55.00
2019-02-27T00:13:36.703Z,55.40
2019-02-27T00:16:11.119Z,54.90
2019-02-27T00:18:45.335Z,55.00
2019-02-27T00:21:18.763Z,55.10
2019-02-27T00:23:52.178Z,55.20
2019-02-27T00:26:25.603Z,55.30
2019-02-27T00:28:59.023Z,55.20
2019-02-27T00:31:32.523Z,55.20
2019-02-27T00:34:05.943Z,55.20
2019-02-27T00:36:39.380Z,55.30
2019-02-27T00:39:12.791Z,55.30
2019-02-27T00:41:46.695Z,55.40
2019-02-27T00:44:20.424Z,55.40
2019-02-27T00:46:53.858Z,55.50
2019-02-27T00:49:27.267Z,55.40
2019-02-27T00:52:00.711Z,55.60
2019-02-27T00:54:34.123Z,55.80
2019-02-27T00:57:07.559Z,55.80
2019-02-27T00:59:40.971Z,55.70
2019-02-27T01:02:14.409Z,55.60
2019-02-27T01:04:47.833Z,55.60
2019-02-27T01:07:21.450Z,55.70
2019-02-27T01:09:55.171Z,55.70
2019-02-27T01:12:28.603Z,55.70
2019-02-27T01:15:02.038Z,55.70
2019-02-27T01:17:35.479Z,55.50
2019-02-27T01:20:15.507Z,55.60
2019-02-27T01:22:48.933Z,55.90
2019-02-27T01:25:23.138Z,56.00
2019-02-27T01:27:57.157Z,56.20
2019-02-27T01:30:30.568Z,56.20
2019-02-27T01:33:04.789Z,56.20
2019-02-27T01:35:38.538Z,56.20
2019-02-27T01:38:11.995Z,56.20
2019-02-27T01:40:45.496Z,56.30
2019-02-27T01:43:18.999Z,56.40
2019-02-27T01:45:54.406Z,56.30
2019-02-27T01:48:27.580Z,56.30
2019-02-27T01:51:01.836Z,56.40
2019-02-27T01:53:35.268Z,56.20
2019-02-27T01:56:08.859Z,56.30
2019-02-27T01:58:44.267Z,56.40
2019-02-27T02:01:17.428Z,56.30
2019-02-27T02:03:50.868Z,56.40
2019-02-27T02:06:24.275Z,56.40
2019-02-27T02:09:12.555Z,56.40
2019-02-27T02:11:45.957Z,56.30
2019-02-27T02:14:22.454Z,56.30
2019-02-27T02:17:10.595Z,56.30
2019-02-27T02:20:07.563Z,56.30
2019-02-27T02:22:46.665Z,55.80
2019-02-27T02:25:29.005Z,56.10
2019-02-27T02:28:26.660Z,56.20
2019-02-27T02:31:08.940Z,56.10
2019-02-27T02:33:51.095Z,56.00
2019-02-27T02:36:47.298Z,56.10
2019-02-27T02:39:41.857Z,56.20
2019-02-27T02:42:25.399Z,56.20
2019-02-27T02:45:23.083Z,56.30
2019-02-27T02:48:16.031Z,56.30
2019-02-27T02:50:55.130Z,56.30
2019-02-27T02:53:48.645Z,56.30
2019-02-27T02:56:33.453Z,56.10
2019-02-27T02:59:26.321Z,56.30
2019-02-27T03:02:08.744Z,56.40
2019-02-27T03:05:07.734Z,56.20
2019-02-27T03:07:47.040Z,56.10
2019-02-27T03:10:42.811Z,55.70
2019-02-27T03:13:34.632Z,56.10
2019-02-27T03:16:11.146Z,56.00
2019-02-27T03:18:50.376Z,56.10
2019-02-27T03:21:47.417Z,56.20
2019-02-27T03:24:43.265Z,55.90
2019-02-27T03:27:45.332Z,56.40
2019-02-27T03:30:38.497Z,56.40
2019-02-27T03:33:26.815Z,56.20
2019-02-27T03:36:21.556Z,56.20
2019-02-27T03:39:18.777Z,56.70
2019-02-27T03:42:13.160Z,56.10
2019-02-27T03:44:58.597Z,56.20
2019-02-27T03:47:41.019Z,56.20
2019-02-27T03:50:35.273Z,56.30
2019-02-27T03:53:32.668Z,56.40
2019-02-27T03:56:44.743Z,56.60
2019-02-27T03:59:21.351Z,56.80
2019-02-27T04:02:05.758Z,56.70
2019-02-27T04:04:53.040Z,56.80
2019-02-27T04:07:47.397Z,56.90
2019-02-27T04:10:20.881Z,56.90
2019-02-27T04:12:54.334Z,56.80
2019-02-27T04:15:27.756Z,56.80
2019-02-27T04:18:00.123Z,56.80
2019-02-27T04:20:33.536Z,56.90
2019-02-27T04:23:11.457Z,56.90
2019-02-27T04:25:42.124Z,56.90
2019-02-27T04:28:15.582Z,56.80
2019-02-27T04:30:51.382Z,56.80
2019-02-27T04:33:24.313Z,56.80
2019-02-27T04:35:57.801Z,57.10
2019-02-27T04:38:31.229Z,57.20
2019-02-27T04:41:04.727Z,57.20
2019-02-27T04:43:38.169Z,57.30
2019-02-27T04:46:11.593Z,57.30
2019-02-27T04:48:45.026Z,57.40
2019-02-27T04:51:18.439Z,57.40
2019-02-27T04:53:51.872Z,57.20
2019-02-27T04:56:25.292Z,57.00
2019-02-27T04:58:58.724Z,57.10
2019-02-27T05:01:36.431Z,57.20
2019-02-27T05:04:07.318Z,57.30
2019-02-27T05:06:40.737Z,57.20
2019-02-27T05:09:14.176Z,57.30
2019-02-27T05:11:48.280Z,57.40
2019-02-27T05:14:21.919Z,57.50
2019-02-27T05:16:55.328Z,57.50
2019-02-27T05:19:28.761Z,57.50
2019-02-27T05:22:02.183Z,57.30
2019-02-27T05:24:35.617Z,57.30
2019-02-27T05:27:09.045Z,57.30
2019-02-27T05:29:42.482Z,57.30
2019-02-27T05:32:18.018Z,57.30
2019-02-27T05:34:51.058Z,57.50
2019-02-27T05:37:24.476Z,57.50
2019-02-27T05:39:57.924Z,57.20
2019-02-27T05:42:31.348Z,57.30
2019-02-27T05:45:07.548Z,57.40
2019-02-27T05:47:44.817Z,57.20
2019-02-27T05:50:16.131Z,57.20
2019-02-27T05:52:49.677Z,57.30
2019-02-27T05:55:23.156Z,57.20
2019-02-27T05:57:56.577Z,57.10
2019-02-27T06:00:30.724Z,57.20
2019-02-27T06:03:04.220Z,57.10
2019-02-27T06:05:37.654Z,57.30
2019-02-27T06:08:11.080Z,57.30
2019-02-27T06:10:44.528Z,57.10
2019-02-27T06:13:17.953Z,57.10
2019-02-27T06:15:51.400Z,57.20
2019-02-27T06:18:24.833Z,57.30
2019-02-27T06:20:58.274Z,57.20
2019-02-27T06:23:31.703Z,57.30
2019-02-27T06:26:05.142Z,57.30
2019-02-27T06:28:38.594Z,57.10
2019-02-27T06:31:31.373Z,57.00
2019-02-27T06:34:04.859Z,56.70
2019-02-27T06:36:41.852Z,57.30
2019-02-27T06:39:13.439Z,57.40
2019-02-27T06:41:47.473Z,57.50
2019-02-27T06:44:22.008Z,57.50
2019-02-27T06:46:55.440Z,57.40
2019-02-27T06:49:28.875Z,57.30
2019-02-27T06:52:02.433Z,57.10
2019-02-27T06:54:37.753Z,56.80
2019-02-27T06:57:10.999Z,56.90
2019-02-27T06:59:44.436Z,57.00
2019-02-27T07:02:19.136Z,57.10
2019-02-27T07:04:53.036Z,57.00
2019-02-27T07:07:28.820Z,57.00
2019-02-27T07:10:01.638Z,57.00
2019-02-27T07:12:35.083Z,57.00
2019-02-27T07:15:14.280Z,56.90
2019-02-27T07:17:47.714Z,57.00
2019-02-27T07:20:24.546Z,56.80
2019-02-27T07:22:57.721Z,56.80
2019-02-27T07:25:31.185Z,56.70
2019-02-27T07:28:08.196Z,56.70
2019-02-27T07:30:42.434Z,56.50
2019-02-27T07:33:14.948Z,56.50
2019-02-27T07:35:48.393Z,56.50
2019-02-27T07:38:22.281Z,56.60
2019-02-27T07:40:55.877Z,56.60
2019-02-27T07:43:29.316Z,56.40
2019-02-27T07:46:02.749Z,56.30
2019-02-27T07:48:36.186Z,56.40
2019-02-27T07:51:09.612Z,56.40
2019-02-27T07:53:43.038Z,56.40
2019-02-27T07:56:16.456Z,56.40
2019-02-27T07:58:49.892Z,56.10
2019-02-27T08:01:24.153Z,56.00
2019-02-27T08:03:57.937Z,56.10
2019-02-27T08:06:31.358Z,56.40
2019-02-27T08:09:06.172Z,56.10
2019-02-27T08:11:39.591Z,56.10
2019-02-27T08:14:13.128Z,56.00
2019-02-27T08:16:47.993Z,55.80
2019-02-27T08:19:21.735Z,55.70
2019-02-27T08:21:55.159Z,55.50
2019-02-27T08:24:28.626Z,55.30
2019-02-27T08:27:02.096Z,55.10
2019-02-27T08:29:35.534Z,54.90
2019-02-27T08:32:08.955Z,54.90
2019-02-27T08:34:42.385Z,54.80
2019-02-27T08:37:15.804Z,54.60
2019-02-27T08:39:49.232Z,54.40
2019-02-27T08:42:22.661Z,54.10
2019-02-27T08:44:56.098Z,54.00
2019-02-27T08:47:29.528Z,53.80
2019-02-27T08:50:02.952Z,53.60
2019-02-27T08:52:36.369Z,53.40
2019-02-27T08:55:19.065Z,53.10
2019-02-27T08:57:49.778Z,53.00
2019-02-27T09:00:31.548Z,52.80
2019-02-27T09:03:04.969Z,52.60
2019-02-27T09:05:38.409Z,52.30
2019-02-27T09:08:11.901Z,52.10
2019-02-27T09:10:45.339Z,51.90
2019-02-27T09:13:18.753Z,51.50
2019-02-27T09:15:52.200Z,51.10
2019-02-27T09:18:25.620Z,50.70
2019-02-27T09:20:59.052Z,50.30
2019-02-27T09:23:32.486Z,49.90
2019-02-27T09:26:05.908Z,49.50
2019-02-27T09:28:39.328Z,49.40
2019-02-27T09:31:12.784Z,49.10
2019-02-27T09:33:46.269Z,48.70
2019-02-27T09:36:19.712Z,48.40
2019-02-27T09:38:57.286Z,48.10
2019-02-27T09:41:28.394Z,47.80
2019-02-27T09:44:01.801Z,47.40
2019-02-27T09:46:35.328Z,47.40
2019-02-27T09:49:08.748Z,47.10
2019-02-27T09:51:42.206Z,46.80
2019-02-27T09:54:15.629Z,46.50
2019-02-27T09:56:49.089Z,46.20
2019-02-27T09:59:22.566Z,46.00
2019-02-27T10:01:57.308Z,45.20
2019-02-27T10:04:31.042Z,45.50
2019-02-27T10:07:04.608Z,45.40
2019-02-27T10:09:38.044Z,45.00
2019-02-27T10:12:11.497Z,44.80
2019-02-27T10:14:44.929Z,44.60
2019-02-27T10:17:18.360Z,44.50
2019-02-27T10:19:51.809Z,44.30
2019-02-27T10:22:25.244Z,44.30
2019-02-27T10:24:58.740Z,43.30
2019-02-27T10:27:32.181Z,43.20
2019-02-27T10:30:11.898Z,42.90
2019-02-27T10:32:45.425Z,42.90
2019-02-27T10:35:18.865Z,42.70
2019-02-27T10:37:54.337Z,42.50
2019-02-27T10:40:27.863Z,42.40
2019-02-27T10:43:01.345Z,42.30
2019-02-27T10:45:34.779Z,42.30
2019-02-27T10:48:08.217Z,42.10
2019-02-27T10:50:41.647Z,41.90
2019-02-27T10:53:15.091Z,41.70
2019-02-27T10:55:49.242Z,41.50
2019-02-27T10:58:24.694Z,41.50
2019-02-27T11:01:01.210Z,41.50
2019-02-27T11:03:33.400Z,41.40
2019-02-27T11:06:06.830Z,41.40
2019-02-27T11:08:40.282Z,41.30
2019-02-27T11:11:16.425Z,41.20
2019-02-27T11:13:51.739Z,40.90
2019-02-27T11:16:24.086Z,40.70
2019-02-27T11:18:57.530Z,40.70
2019-02-27T11:21:30.965Z,40.60
2019-02-27T11:24:04.413Z,40.40
2019-02-27T11:26:37.842Z,40.20
2019-02-27T11:29:11.309Z,40.10
2019-02-27T11:31:45.587Z,40.00
2019-02-27T11:34:19.869Z,39.90
2019-02-27T11:36:53.292Z,39.70
2019-02-27T11:39:26.732Z,39.70
2019-02-27T11:42:00.156Z,39.60
2019-02-27T11:44:33.641Z,39.40
2019-02-27T11:47:11.038Z,38.90
2019-02-27T11:49:43.543Z,38.60
2019-02-27T11:52:16.980Z,38.30
2019-02-27T11:54:50.425Z,38.10
2019-02-27T11:57:23.853Z,37.80
2019-02-27T11:59:57.297Z,37.50
2019-02-27T12:02:36.797Z,37.20
2019-02-27T12:05:09.231Z,36.90
2019-02-27T12:07:42.682Z,36.50
2019-02-27T12:10:21.994Z,36.10
2019-02-27T12:12:59.523Z,35.80
2019-02-27T12:15:30.965Z,35.50
2019-02-27T12:18:04.410Z,35.10
2019-02-27T12:20:37.914Z,34.80
2019-02-27T12:23:11.342Z,34.40
2019-02-27T12:25:46.053Z,34.20
2019-02-27T12:28:19.555Z,34.00
2019-02-27T12:30:52.988Z,33.60
2019-02-27T12:33:29.196Z,33.20
2019-02-27T12:36:01.595Z,32.90
2019-02-27T12:38:35.020Z,32.70
2019-02-27T12:41:08.524Z,32.50
2019-02-27T12:43:41.952Z,32.30
2019-02-27T12:46:15.400Z,32.30
2019-02-27T12:48:48.834Z,32.20
2019-02-27T12:51:22.292Z,32.20
2019-02-27T12:53:55.725Z,31.90
2019-02-27T12:56:29.161Z,31.70
2019-02-27T12:59:02.599Z,31.40
2019-02-27T13:01:36.045Z,31.20
2019-02-27T13:04:09.484Z,31.00
2019-02-27T13:06:42.925Z,30.60
2019-02-27T13:09:16.381Z,30.30
2019-02-27T13:11:49.956Z,30.80
2019-02-27T13:14:23.380Z,30.00
2019-02-27T13:16:56.817Z,30.00
2019-02-27T13:19:30.245Z,29.90
2019-02-27T13:22:03.696Z,29.80
2019-02-27T13:24:37.120Z,29.50
2019-02-27T13:27:10.557Z,29.40
2019-02-27T13:29:44.569Z,29.30
2019-02-27T13:32:18.194Z,29.30
2019-02-27T13:34:51.692Z,29.40
2019-02-27T13:37:25.132Z,29.30
2019-02-27T13:40:00.409Z,29.20
2019-02-27T13:42:33.727Z,29.00
2019-02-27T13:45:13.494Z,28.80
2019-02-27T13:47:47.191Z,28.70
2019-02-27T13:50:23.581Z,28.70
2019-02-27T13:52:55.923Z,28.40
2019-02-27T13:55:29.352Z,28.30
2019-02-27T13:58:03.800Z,28.10
2019-02-27T14:00:38.342Z,27.90
2019-02-27T14:03:12.615Z,27.60
2019-02-27T14:05:46.888Z,27.50
2019-02-27T14:08:20.393Z,27.30
2019-02-27T14:10:54.052Z,27.30
2019-02-27T14:13:27.841Z,27.10
2019-02-27T14:16:01.602Z,27.00
2019-02-27T14:18:35.260Z,26.80
2019-02-27T14:21:08.681Z,26.70
2019-02-27T14:23:42.121Z,26.40
2019-02-27T14:26:15.548Z,26.10
2019-02-27T14:28:48.985Z,25.80
2019-02-27T14:31:22.405Z,25.50
2019-02-27T14:33:55.841Z,25.10
2019-02-27T14:36:29.269Z,24.60
2019-02-27T14:39:04.584Z,24.10
2019-02-27T14:41:38.032Z,23.80
2019-02-27T14:44:11.480Z,23.40
2019-02-27T14:46:45.119Z,22.90
2019-02-27T14:49:19.376Z,22.40
2019-02-27T14:51:52.796Z,22.00
2019-02-27T14:54:29.173Z,21.70
2019-02-27T14:57:01.407Z,21.60
2019-02-27T14:59:34.853Z,21.40
2019-02-27T15:02:08.281Z,21.30
2019-02-27T15:04:41.720Z,21.10
2019-02-27T15:07:15.157Z,20.90
2019-02-27T15:09:48.588Z,20.50
2019-02-27T15:12:22.012Z,20.10
2019-02-27T15:14:55.440Z,19.70
2019-02-27T15:17:28.865Z,19.40
2019-02-27T15:20:05.649Z,19.30
2019-02-27T15:22:37.789Z,19.30
2019-02-27T15:25:13.781Z,19.50
2019-02-27T15:27:47.264Z,19.30
2019-02-27T15:30:22.845Z,19.10
2019-02-27T15:32:56.272Z,19.20
2019-02-27T15:35:29.712Z,19.50
2019-02-27T15:38:03.138Z,20.00
2019-02-27T15:40:38.306Z,20.20
2019-02-27T15:43:11.818Z,20.30
2019-02-27T15:45:48.080Z,20.60
2019-02-27T15:48:22.044Z,21.10
2019-02-27T15:50:57.198Z,21.60
2019-02-27T15:53:30.717Z,22.00
2019-02-27T15:56:05.379Z,22.50
2019-02-27T15:58:39.368Z,22.60
2019-02-27T16:01:12.816Z,22.50
2019-02-27T16:03:46.717Z,22.90
2019-02-27T16:06:22.010Z,23.60
2019-02-27T16:08:58.270Z,24.00
2019-02-27T16:11:30.673Z,24.30
2019-02-27T16:14:23.430Z,24.70
2019-02-27T16:16:57.553Z,25.10
2019-02-27T16:19:31.813Z,25.30
2019-02-27T16:22:05.473Z,25.50
2019-02-27T16:24:40.353Z,25.80
2019-02-27T16:27:14.943Z,25.90
2019-02-27T16:29:48.427Z,26.10
2019-02-27T16:32:22.499Z,26.40
2019-02-27T16:34:56.182Z,26.80
2019-02-27T16:37:31.466Z,27.10
2019-02-27T16:40:08.168Z,27.40
2019-02-27T16:42:41.794Z,27.60
2019-02-27T16:45:20.534Z,27.70
2019-02-27T16:47:56.849Z,27.90
2019-02-27T16:50:29.200Z,28.00
2019-02-27T16:53:02.644Z,28.20
2019-02-27T16:55:37.166Z,28.50
2019-02-27T16:58:11.102Z,28.60
2019-02-27T17:00:44.521Z,28.90
2019-02-27T17:03:19.497Z,29.00
2019-02-27T17:05:52.928Z,29.20
2019-02-27T17:08:28.252Z,29.50
2019-02-27T17:11:01.518Z,29.80
2019-02-27T17:13:34.969Z,30.00
2019-02-27T17:16:10.677Z,30.20
2019-02-27T17:18:43.627Z,30.60
2019-02-27T17:21:21.846Z,30.80
2019-02-27T17:23:52.273Z,30.90
2019-02-27T17:26:25.701Z,31.20
2019-02-27T17:28:59.145Z,31.50
2019-02-27T17:31:32.585Z,31.80
2019-02-27T17:34:06.032Z,32.20
2019-02-27T17:36:39.515Z,32.50
2019-02-27T17:39:13.059Z,32.80
2019-02-27T17:41:46.573Z,33.00
2019-02-27T17:44:20.069Z,33.20
2019-02-27T17:46:54.761Z,33.50
2019-02-27T17:49:28.640Z,33.70
2019-02-27T17:52:10.974Z,33.90
2019-02-27T17:54:37.233Z,34.10
2019-02-27T17:57:10.657Z,34.30
2019-02-27T17:59:44.095Z,34.50
2019-02-27T18:02:17.524Z,34.80
2019-02-27T18:04:53.710Z,35.10
2019-02-27T18:07:34.192Z,35.30
2019-02-27T18:10:02.318Z,35.60
2019-02-27T18:12:35.909Z,35.70
2019-02-27T18:15:19.845Z,36.00
2019-02-27T18:17:50.176Z,36.10
2019-02-27T18:20:25.579Z,36.30
2019-02-27T18:22:58.761Z,36.40
2019-02-27T18:25:32.227Z,36.80
2019-02-27T18:28:05.648Z,36.90
2019-02-27T18:30:39.168Z,37.20
2019-02-27T18:33:13.975Z,37.30
2019-02-27T18:35:47.763Z,37.50
2019-02-27T18:38:21.190Z,37.70
2019-02-27T18:40:54.623Z,38.00
2019-02-27T18:43:30.137Z,38.20
2019-02-27T18:46:03.219Z,38.40
2019-02-27T18:48:36.646Z,38.60
2019-02-27T18:51:10.076Z,38.80
2019-02-27T18:53:47.333Z,38.90
2019-02-27T18:56:18.689Z,39.10
2019-02-27T18:58:55.629Z,39.30
2019-02-27T19:01:28.815Z,39.40
2019-02-27T19:04:02.241Z,39.50
2019-02-27T19:06:36.056Z,39.70
2019-02-27T19:09:09.932Z,40.00
2019-02-27T19:11:43.372Z,40.20
2019-02-27T19:14:16.829Z,40.30
2019-02-27T19:16:52.179Z,40.40
2019-02-27T19:19:25.534Z,40.50
2019-02-27T19:21:59.021Z,40.60
2019-02-27T19:24:32.575Z,40.60
2019-02-27T19:27:06.069Z,40.80
2019-02-27T19:29:39.512Z,41.00
2019-02-27T19:32:12.949Z,41.10
2019-02-27T19:34:48.061Z,42.20
2019-02-27T19:37:21.648Z,42.50
2019-02-27T19:39:56.325Z,42.70
2019-02-27T19:42:30.236Z,42.80
2019-02-27T19:45:05.181Z,42.90
2019-02-27T19:47:38.646Z,43.00
2019-02-27T19:50:12.226Z,43.10
2019-02-27T19:52:45.721Z,43.20
2019-02-27T19:55:19.322Z,43.30
2019-02-27T19:57:52.816Z,43.50
2019-02-27T20:00:33.780Z,43.60
2019-02-27T20:03:04.936Z,43.70
2019-02-27T20:05:38.377Z,43.90
2019-02-27T20:08:11.960Z,43.90
2019-02-27T20:10:45.428Z,44.10
2019-02-27T20:13:18.972Z,44.30
2019-02-27T20:15:52.475Z,44.40
2019-02-27T20:18:25.896Z,44.50
2019-02-27T20:20:59.400Z,44.60
2019-02-27T20:23:32.830Z,44.80
2019-02-27T20:26:13.876Z,44.80
2019-02-27T20:28:41.411Z,45.40
2019-02-27T20:31:17.982Z,44.90
2019-02-27T20:33:50.177Z,45.00
2019-02-27T20:36:23.621Z,45.20
2019-02-27T20:38:57.045Z,45.50
2019-02-27T20:41:30.681Z,45.80
2019-02-27T20:44:04.360Z,45.70
2019-02-27T20:46:38.396Z,45.80
2019-02-27T20:49:13.980Z,45.90
2019-02-27T20:51:47.048Z,45.90
2019-02-27T20:54:20.472Z,45.90
2019-02-27T20:56:55.769Z,46.00
2019-02-27T20:59:29.053Z,46.00
2019-02-27T21:02:02.496Z,46.10
2019-02-27T21:04:35.980Z,46.30
2019-02-27T21:07:09.438Z,46.40
2019-02-27T21:09:45.236Z,46.50
2019-02-27T21:12:18.084Z,46.50
2019-02-27T21:14:51.506Z,46.50
2019-02-27T21:17:24.948Z,46.60
2019-02-27T21:19:58.369Z,46.70
2019-02-27T21:22:31.825Z,46.70
2019-02-27T21:25:07.295Z,46.80
2019-02-27T21:27:40.725Z,47.00
2019-02-27T21:30:22.132Z,47.10
2019-02-27T21:32:55.577Z,47.20
2019-02-27T21:35:29.839Z,47.40
2019-02-27T21:38:03.784Z,47.30
2019-02-27T21:40:37.209Z,47.40
2019-02-27T21:43:10.712Z,47.60
2019-02-27T21:45:44.200Z,47.70
2019-02-27T21:48:17.639Z,47.80
2019-02-27T21:50:51.061Z,48.20
2019-02-27T21:53:26.084Z,48.50
2019-02-27T21:56:00.032Z,48.80
2019-02-27T21:58:33.486Z,48.90
2019-02-27T22:01:06.897Z,48.90
2019-02-27T22:03:40.333Z,48.90
2019-02-27T22:06:13.757Z,49.00
2019-02-27T22:08:47.205Z,49.00
2019-02-27T22:11:20.616Z,48.90
2019-02-27T22:13:54.048Z,48.90
2019-02-27T22:16:30.488Z,49.00
2019-02-27T22:19:02.642Z,49.20
2019-02-27T22:21:36.061Z,49.30
2019-02-27T22:24:09.540Z,49.40
2019-02-27T22:26:42.956Z,49.50
2019-02-27T22:29:16.403Z,49.30
2019-02-27T22:31:49.816Z,49.20
2019-02-27T22:34:23.251Z,49.10
2019-02-27T22:36:56.671Z,49.00
2019-02-27T22:39:31.698Z,49.00
2019-02-27T22:42:05.252Z,49.00
2019-02-27T22:44:38.699Z,49.00
2019-02-27T22:47:12.125Z,49.00
2019-02-27T22:49:45.565Z,48.90
2019-02-27T22:52:19.581Z,48.90
2019-02-27T22:54:54.158Z,48.90
2019-02-27T22:57:27.584Z,49.10
2019-02-27T23:00:01.023Z,49.20
2019-02-27T23:02:34.450Z,49.30
2019-02-27T23:05:27.301Z,49.30
2019-02-27T23:08:00.716Z,49.10
2019-02-27T23:10:34.232Z,49.60
2019-02-27T23:13:12.384Z,49.70
2019-02-27T23:15:44.412Z,49.80
2019-02-27T23:18:17.913Z,49.90
2019-02-27T23:20:52.573Z,49.90
2019-02-27T23:23:26.577Z,50.00
2019-02-27T23:26:00.013Z,50.00
2019-02-27T23:28:34.718Z,50.20
2019-02-27T23:31:08.665Z,50.30
2019-02-27T23:33:42.092Z,50.40
2019-02-27T23:36:15.537Z,50.40
2019-02-27T23:38:48.957Z,50.50
2019-02-27T23:41:23.172Z,50.60
2019-02-27T23:43:57.393Z,50.60
2019-02-27T23:46:30.827Z,50.50
2019-02-27T23:49:06.570Z,50.50
2019-02-27T23:51:41.852Z,50.60
2019-02-27T23:54:15.281Z,50.60
2019-02-27T23:56:51.759Z,50.70
2019-02-27T23:59:43.201Z,50.70
